Time;durP1;ratioP1;P1;durP2;ratioP2;P2;SDS_P1;SDS_P2;PMS_P1;PMS_P2;Temp;Humidity;BMP_temperature;BMP_pressure;BME280_temperature;BME280_humidity;BME280_pressure;Samples;Min_cycle;Max_cycle;Signal;HPM_P1;HPM_P2
2023/01/31 00:02:24;;;;;;;8.33;4.40;;;;;;;3.03;100.00;99017.47;4991673;28;20234;-81
2023/01/31 00:04:51;;;;;;;8.23;4.87;;;;;;;2.91;100.00;99017.78;4991556;28;20556;-81
2023/01/31 00:07:19;;;;;;;7.67;4.80;;;;;;;2.88;100.00;99015.22;4991914;28;20202;-81
2023/01/31 00:09:45;;;;;;;10.13;5.03;;;;;;;2.81;100.00;99011.06;4991582;28;20214;-81
2023/01/31 00:12:11;;;;;;;9.33;4.90;;;;;;;2.84;100.00;99011.00;4991490;28;20324;-81
2023/01/31 00:14:38;;;;;;;10.13;5.07;;;;;;;2.84;100.00;99013.63;4992028;28;20210;-81
2023/01/31 00:17:04;;;;;;;7.87;4.93;;;;;;;2.81;100.00;99015.44;4991748;28;20237;-81
2023/01/31 00:19:31;;;;;;;7.83;4.97;;;;;;;2.80;100.00;99018.94;4991571;28;20589;-81
2023/01/31 00:21:57;;;;;;;12.20;4.63;;;;;;;2.78;100.00;99016.38;4991734;28;20582;-81
2023/01/31 00:24:25;;;;;;;8.50;4.47;;;;;;;2.76;100.00;99006.88;4991732;28;20676;-81
2023/01/31 00:26:55;;;;;;;8.90;4.30;;;;;;;2.76;100.00;99006.88;4991750;28;20204;-80
2023/01/31 00:29:22;;;;;;;10.17;4.60;;;;;;;2.76;100.00;99012.94;4991411;28;20305;-81
2023/01/31 00:31:48;;;;;;;9.23;5.27;;;;;;;2.79;100.00;99007.66;4991955;28;20230;-81
2023/01/31 00:34:15;;;;;;;6.23;4.07;;;;;;;2.81;100.00;99005.84;4991578;28;20574;-81
2023/01/31 00:36:41;;;;;;;10.90;5.13;;;;;;;2.81;100.00;99000.63;4991710;28;20708;-81
2023/01/31 00:39:09;;;;;;;8.90;4.37;;;;;;;2.84;100.00;98997.97;4991241;28;20218;-81
2023/01/31 00:41:38;;;;;;;9.63;4.63;;;;;;;2.87;100.00;98990.03;4991211;28;20226;-81
2023/01/31 00:44:06;;;;;;;11.80;5.77;;;;;;;2.86;100.00;98998.75;4991514;28;20222;-81
2023/01/31 00:46:33;;;;;;;9.33;4.40;;;;;;;2.86;100.00;99000.50;4991623;28;20216;-81
2023/01/31 00:49:00;;;;;;;8.00;4.57;;;;;;;2.90;100.00;99005.63;4991304;28;20208;-81
2023/01/31 00:51:27;;;;;;;10.83;4.60;;;;;;;2.90;100.00;99005.63;4991297;28;20320;-80
2023/01/31 00:53:53;;;;;;;9.10;4.60;;;;;;;2.90;100.00;99000.41;4991647;28;20564;-81
2023/01/31 00:56:22;;;;;;;8.33;4.47;;;;;;;2.89;100.00;98993.44;4991431;28;20231;-81
2023/01/31 00:58:51;;;;;;;8.83;3.93;;;;;;;2.86;100.00;98996.16;4990949;28;20214;-82
2023/01/31 01:01:20;;;;;;;8.90;4.60;;;;;;;2.86;100.00;98990.06;4991238;28;20210;-81
2023/01/31 01:03:46;;;;;;;6.97;4.27;;;;;;;2.81;100.00;98995.41;4991412;28;20288;-81
2023/01/31 01:06:13;;;;;;;8.93;4.70;;;;;;;2.78;100.00;99002.44;4991483;28;20596;-81
2023/01/31 01:08:41;;;;;;;8.00;4.07;;;;;;;2.77;100.00;99012.06;4991042;28;20211;-81
2023/01/31 01:11:11;;;;;;;7.80;4.23;;;;;;;2.75;100.00;99008.59;4991217;28;20298;-80
2023/01/31 01:13:38;;;;;;;9.07;4.73;;;;;;;2.73;100.00;99007.78;4991604;28;20403;-81
2023/01/31 01:16:08;;;;;;;9.20;4.43;;;;;;;2.75;100.00;99011.22;4991604;28;20222;-81
2023/01/31 01:18:35;;;;;;;10.10;4.27;;;;;;;2.74;100.00;99013.84;4991019;28;20223;-81
2023/01/31 01:21:07;;;;;;;9.20;4.53;;;;;;;2.76;100.00;99017.31;4990995;28;20212;-81
2023/01/31 01:23:33;;;;;;;8.13;4.50;;;;;;;2.72;100.00;99021.75;4992832;28;20241;-82
2023/01/31 01:26:00;;;;;;;8.40;4.43;;;;;;;2.68;100.00;99027.91;4994874;28;20206;-81
2023/01/31 01:28:26;;;;;;;7.40;3.80;;;;;;;2.68;100.00;99030.53;4995230;28;20698;-81
2023/01/31 01:30:52;;;;;;;7.13;4.10;;;;;;;2.66;100.00;99029.72;4994716;28;20214;-80
2023/01/31 01:33:20;;;;;;;13.73;3.83;;;;;;;2.57;100.00;99031.69;4994665;28;20233;-82
2023/01/31 01:35:47;;;;;;;9.53;4.40;;;;;;;2.53;100.00;99033.50;4992987;28;20610;-82
2023/01/31 01:38:13;;;;;;;7.43;3.70;;;;;;;2.45;100.00;99042.41;4994220;28;20230;-80
2023/01/31 01:40:40;;;;;;;8.00;3.87;;;;;;;2.36;100.00;99040.88;4992800;28;20213;-81
2023/01/31 01:43:10;;;;;;;6.57;3.70;;;;;;;2.39;100.00;99052.97;4991208;28;20235;-80
2023/01/31 01:45:37;;;;;;;8.50;4.40;;;;;;;2.33;100.00;99051.34;4991176;28;20265;-80
2023/01/31 01:48:07;;;;;;;6.37;3.70;;;;;;;2.33;100.00;99051.34;4990807;28;20322;-81
2023/01/31 01:50:41;;;;;;;8.63;3.70;;;;;;;2.30;100.00;99054.03;4991153;28;20257;-83
2023/01/31 01:53:12;;;;;;;10.87;4.37;;;;;;;2.29;100.00;99052.31;4991898;28;20238;-82
2023/01/31 01:55:42;;;;;;;9.00;3.97;;;;;;;2.32;100.00;99052.25;4994540;28;20206;-81
2023/01/31 01:58:14;;;;;;;8.57;3.80;;;;;;;2.27;100.00;99055.84;4994533;28;20234;-81
2023/01/31 02:00:41;;;;;;;9.87;4.83;;;;;;;2.32;100.00;99067.06;4993799;28;20214;-81
2023/01/31 02:03:08;;;;;;;9.60;3.70;;;;;;;2.33;100.00;99064.38;4994179;28;20317;-82
2023/01/31 02:05:40;;;;;;;6.70;3.80;;;;;;;2.34;100.00;99055.66;4994573;28;20232;-81
2023/01/31 02:08:06;;;;;;;9.40;3.80;;;;;;;2.42;100.00;99058.97;4994373;28;20206;-81
2023/01/31 02:10:40;;;;;;;7.90;3.80;;;;;;;2.46;100.00;99060.63;4994010;28;20543;-79
2023/01/31 02:13:06;;;;;;;9.83;4.13;;;;;;;2.45;100.00;99051.06;4993891;28;20582;-81
2023/01/31 02:15:34;;;;;;;8.17;4.07;;;;;;;2.48;100.00;99048.41;4993838;28;20221;-82
2023/01/31 02:18:01;;;;;;;7.77;3.93;;;;;;;2.45;100.00;99053.69;4994230;28;20309;-81
2023/01/31 02:20:59;;;;;;;6.67;4.53;;;;;;;2.46;100.00;99060.63;4994086;28;20213;-81
2023/01/31 02:23:59;;;;;;;8.87;4.13;;;;;;;2.53;100.00;99064.81;4993951;28;20261;-81
2023/01/31 02:26:58;;;;;;;7.27;3.93;;;;;;;2.58;100.00;99068.16;4988782;28;20219;-81
2023/01/31 02:30:08;;;;;;;10.00;4.20;;;;;;;2.60;100.00;99079.44;4983486;28;20220;-81
2023/01/31 02:32:48;;;;;;;8.97;4.10;;;;;;;2.62;100.00;99071.56;4986671;28;20233;-81
2023/01/31 02:35:28;;;;;;;8.93;4.37;;;;;;;2.59;100.00;99075.13;4993832;28;20568;-81
2023/01/31 02:38:03;;;;;;;7.27;4.10;;;;;;;2.56;100.00;99083.00;4993505;28;20233;-81
2023/01/31 02:40:38;;;;;;;7.70;4.23;;;;;;;2.59;100.00;99072.53;4992978;28;20210;-81
2023/01/31 02:43:12;;;;;;;11.30;4.23;;;;;;;2.64;100.00;99086.28;4993121;28;20226;-81
2023/01/31 02:45:47;;;;;;;6.73;4.50;;;;;;;2.62;100.00;99080.25;4993341;28;20594;-82
2023/01/31 02:48:25;;;;;;;6.63;4.17;;;;;;;2.66;100.00;99088.88;4993548;28;20206;-82
2023/01/31 02:51:01;;;;;;;9.23;4.17;;;;;;;2.67;100.00;99082.75;4993144;28;20694;-82
2023/01/31 02:53:32;;;;;;;10.07;4.33;;;;;;;2.61;100.00;99090.72;4993130;28;20245;-81
2023/01/31 02:56:16;;;;;;;8.33;4.53;;;;;;;2.64;100.00;99101.94;4993445;28;20265;-81
2023/01/31 02:58:47;;;;;;;8.20;4.80;;;;;;;2.60;100.00;99097.72;4993190;28;20300;-81
2023/01/31 03:01:18;;;;;;;9.30;4.40;;;;;;;2.62;100.00;99093.31;4992680;28;20210;-81
2023/01/31 03:03:46;;;;;;;9.07;4.63;;;;;;;2.65;100.00;99088.03;4993041;28;20243;-81
2023/01/31 03:06:53;;;;;;;9.10;4.77;;;;;;;2.69;100.00;99089.66;4993148;28;20289;-81
2023/01/31 03:09:28;;;;;;;9.03;4.43;;;;;;;2.66;100.00;99084.53;4992514;28;20210;-81
2023/01/31 03:12:20;;;;;;;6.33;4.10;;;;;;;2.65;100.00;99079.34;4993016;28;20233;-81
2023/01/31 03:14:58;;;;;;;11.50;4.97;;;;;;;2.67;100.00;99083.63;4992969;28;20211;-81
2023/01/31 03:17:33;;;;;;;9.87;4.80;;;;;;;2.65;100.00;99093.25;4992650;28;20234;-81
2023/01/31 03:20:11;;;;;;;9.67;4.90;;;;;;;2.66;100.00;99079.31;4992255;28;20217;-81
2023/01/31 03:22:41;;;;;;;11.70;5.13;;;;;;;2.62;100.00;99090.69;4993070;28;20237;-77
2023/01/31 03:25:21;;;;;;;13.80;5.80;;;;;;;2.64;100.00;99086.28;4992532;28;20681;-81
2023/01/31 03:27:54;;;;;;;7.40;4.70;;;;;;;2.64;100.00;99086.28;4992619;28;20217;-81
2023/01/31 03:30:30;;;;;;;9.83;5.07;;;;;;;2.64;100.00;99096.72;4992043;28;20210;-82
2023/01/31 03:33:00;;;;;;;13.03;5.27;;;;;;;2.68;100.00;99090.56;4992581;28;20242;-81
2023/01/31 03:35:31;;;;;;;11.00;4.83;;;;;;;2.68;100.00;99093.16;4992434;28;20670;-81
2023/01/31 03:38:05;;;;;;;9.83;5.13;;;;;;;2.69;100.00;99092.28;4992423;28;20259;-81
2023/01/31 03:40:38;;;;;;;13.17;5.07;;;;;;;2.67;100.00;99098.41;4992230;28;20260;-81
2023/01/31 03:43:11;;;;;;;12.33;5.37;;;;;;;2.60;100.00;99105.53;4992630;28;20232;-81
2023/01/31 03:45:42;;;;;;;9.67;5.00;;;;;;;2.62;100.00;99108.97;4992423;28;20214;-81
2023/01/31 03:48:13;;;;;;;10.90;4.83;;;;;;;2.64;100.00;99107.16;4992155;28;20207;-81
2023/01/31 03:50:44;;;;;;;8.27;5.03;;;;;;;2.66;100.00;99108.00;4991918;28;20221;-81
2023/01/31 03:53:14;;;;;;;11.07;5.40;;;;;;;2.63;100.00;99105.47;4992126;28;20242;-81
2023/01/31 03:55:45;;;;;;;6.67;4.33;;;;;;;2.63;100.00;99100.25;4991840;28;20229;-81
2023/01/31 03:58:15;;;;;;;10.73;5.07;;;;;;;2.61;100.00;99102.03;4991991;28;20226;-81
2023/01/31 04:00:43;;;;;;;7.57;5.30;;;;;;;2.58;100.00;99107.31;4991803;28;20210;-81
2023/01/31 04:03:14;;;;;;;10.03;5.40;;;;;;;2.54;100.00;99110.91;4991801;28;20236;-82
2023/01/31 04:05:42;;;;;;;15.43;5.10;;;;;;;2.59;100.00;99116.88;4991886;28;20214;-79
2023/01/31 04:08:08;;;;;;;9.83;4.97;;;;;;;2.54;100.00;99118.72;4992089;28;20202;-80
2023/01/31 04:10:35;;;;;;;10.97;5.00;;;;;;;2.51;100.00;99116.16;4991337;28;20221;-80
2023/01/31 04:13:01;;;;;;;9.63;4.50;;;;;;;2.42;100.00;99125.94;4991675;28;20339;-80
2023/01/31 04:15:28;;;;;;;8.40;5.13;;;;;;;2.41;100.00;99127.72;4991081;28;20210;-82
2023/01/31 04:17:54;;;;;;;10.43;4.00;;;;;;;2.37;100.00;99127.78;4991630;28;20234;-80
2023/01/31 04:20:21;;;;;;;9.73;4.67;;;;;;;2.25;100.00;99135.84;4991091;28;20206;-80
2023/01/31 04:22:49;;;;;;;8.43;4.07;;;;;;;2.16;100.00;99133.44;4991862;28;20238;-80
2023/01/31 04:25:15;;;;;;;8.37;4.30;;;;;;;2.06;100.00;99130.16;4991843;28;20250;-80
2023/01/31 04:27:42;;;;;;;11.43;4.93;;;;;;;1.99;100.00;99131.19;4991598;28;20202;-81
2023/01/31 04:30:09;;;;;;;9.50;4.73;;;;;;;1.95;100.00;99123.44;4991293;28;20210;-80
2023/01/31 04:32:36;;;;;;;9.03;4.27;;;;;;;1.88;100.00;99130.53;4991969;28;20237;-80
2023/01/31 04:35:02;;;;;;;11.23;5.77;;;;;;;1.76;100.00;99133.38;4991618;28;20543;-81
2023/01/31 04:37:29;;;;;;;9.07;4.43;;;;;;;1.66;100.00;99137.00;4991535;28;20230;-80
2023/01/31 04:39:57;;;;;;;9.70;4.77;;;;;;;1.57;100.00;99131.97;4991282;28;20218;-80
2023/01/31 04:42:23;;;;;;;10.87;5.37;;;;;;;1.53;100.00;99139.88;4991490;28;20231;-80
2023/01/31 04:44:50;;;;;;;9.07;5.07;;;;;;;1.47;100.00;99140.84;4991223;28;20209;-80
2023/01/31 04:47:16;;;;;;;7.57;4.50;;;;;;;1.42;100.00;99147.03;4991294;28;20217;-80
2023/01/31 04:49:42;;;;;;;12.03;5.67;;;;;;;1.40;100.00;99143.56;4990840;28;20677;-80
2023/01/31 04:52:09;;;;;;;12.73;4.93;;;;;;;1.36;100.00;99147.13;5013880;23;20231;-81
2023/01/31 04:54:36;;;;;;;8.73;5.10;;;;;;;1.31;100.00;99138.53;5031208;28;20231;-81
2023/01/31 04:57:04;;;;;;;10.33;5.30;;;;;;;1.27;100.00;99132.50;5030844;28;20209;-81
2023/01/31 04:59:31;;;;;;;10.90;5.77;;;;;;;1.28;100.00;99134.22;5030604;28;20314;-80
2023/01/31 05:01:57;;;;;;;10.83;5.80;;;;;;;1.40;100.00;99133.16;5030884;28;20648;-81
2023/01/31 05:04:25;;;;;;;12.33;5.23;;;;;;;1.43;100.00;99133.97;5031303;28;20228;-81
2023/01/31 05:06:52;;;;;;;11.13;5.03;;;;;;;1.57;100.00;99134.59;5030883;28;20208;-81
2023/01/31 05:09:18;;;;;;;10.90;5.10;;;;;;;1.71;100.00;99140.41;5030822;28;20205;-81
2023/01/31 05:11:45;;;;;;;8.43;4.87;;;;;;;1.77;100.00;99134.22;5030813;28;20591;-81
2023/01/31 05:14:13;;;;;;;13.63;5.63;;;;;;;1.81;100.00;99134.16;5031461;28;20571;-81
2023/01/31 05:16:40;;;;;;;14.30;6.13;;;;;;;1.85;100.00;99133.19;5030629;28;20209;-81
2023/01/31 05:19:06;;;;;;;8.90;4.40;;;;;;;1.88;100.00;99133.13;5030544;28;20600;-81
2023/01/31 05:21:53;;;;;;;9.37;4.97;;;;;;;1.91;100.00;99137.44;5030872;28;20220;-80
2023/01/31 05:24:20;;;;;;;12.00;5.60;;;;;;;1.88;100.00;99137.47;5030719;28;20244;-81
2023/01/31 05:26:49;;;;;;;14.63;5.97;;;;;;;1.80;100.00;99129.81;5031267;28;20218;-81
2023/01/31 05:29:17;;;;;;;9.73;4.60;;;;;;;1.74;100.00;99129.94;5034518;28;20208;-81
2023/01/31 05:31:44;;;;;;;7.77;4.83;;;;;;;1.65;100.00;99135.31;5034822;28;20581;-81
2023/01/31 05:34:14;;;;;;;7.93;5.47;;;;;;;1.62;100.00;99127.56;5034867;28;20278;-81
2023/01/31 05:36:41;;;;;;;9.03;5.00;;;;;;;1.54;100.00;99132.03;5034853;28;20205;-81
2023/01/31 05:39:07;;;;;;;10.30;5.23;;;;;;;1.39;100.00;99132.31;5034329;28;20240;-80
2023/01/31 05:41:34;;;;;;;8.73;4.70;;;;;;;1.24;100.00;99140.34;5034382;28;20217;-81
2023/01/31 05:44:00;;;;;;;10.33;5.20;;;;;;;1.10;100.00;99147.53;5034639;28;20217;-81
2023/01/31 05:46:28;;;;;;;10.40;5.07;;;;;;;1.00;100.00;99138.13;5034559;28;20686;-81
2023/01/31 05:48:55;;;;;;;9.60;4.87;;;;;;;0.90;100.00;99143.50;5034816;28;20212;-81
2023/01/31 05:51:21;;;;;;;9.53;4.90;;;;;;;0.83;100.00;99141.88;5034514;28;20220;-82
2023/01/31 05:53:48;;;;;;;10.50;5.47;;;;;;;0.72;100.00;99141.19;5033719;28;20244;-81
2023/01/31 05:56:15;;;;;;;10.57;5.87;;;;;;;0.65;100.00;99145.63;5033654;28;20239;-81
2023/01/31 05:58:41;;;;;;;14.47;6.03;;;;;;;0.66;100.00;99143.88;5034041;28;20275;-80
2023/01/31 06:01:08;;;;;;;10.87;5.80;;;;;;;0.55;100.00;99144.03;5034082;28;20223;-80
2023/01/31 06:03:36;;;;;;;10.37;6.33;;;;;;;0.52;100.00;99144.09;5034506;28;20588;-81
2023/01/31 06:06:04;;;;;;;11.67;5.43;;;;;;;0.50;100.00;99143.22;5035051;28;20212;-81
2023/01/31 06:08:30;;;;;;;9.53;5.17;;;;;;;0.47;100.00;99145.00;5034126;28;20297;-81
2023/01/31 06:10:57;;;;;;;11.97;5.17;;;;;;;0.39;100.00;99132.09;5033496;28;20319;-81
2023/01/31 06:13:23;;;;;;;13.30;5.97;;;;;;;0.41;100.00;99142.50;5034387;28;20232;-81
2023/01/31 06:15:50;;;;;;;10.87;5.50;;;;;;;0.39;100.00;99137.31;5033755;28;20208;-81
2023/01/31 06:18:16;;;;;;;13.47;6.60;;;;;;;0.41;100.00;99143.38;5034370;28;20232;-80
2023/01/31 06:20:44;;;;;;;10.13;5.40;;;;;;;0.30;100.00;99137.44;5033555;28;20210;-81
2023/01/31 06:23:11;;;;;;;9.70;5.00;;;;;;;0.31;100.00;99148.72;5033937;28;20596;-81
2023/01/31 06:25:37;;;;;;;12.97;5.43;;;;;;;0.35;100.00;99139.97;5033669;28;20209;-81
2023/01/31 06:28:04;;;;;;;10.83;5.57;;;;;;;0.34;100.00;99149.53;5034102;28;20209;-80
2023/01/31 06:30:31;;;;;;;7.97;4.87;;;;;;;0.32;100.00;99148.66;5033640;28;20211;-81
2023/01/31 06:32:59;;;;;;;12.57;5.47;;;;;;;0.29;100.00;99146.13;5033894;28;20233;-81
2023/01/31 06:35:26;;;;;;;10.13;4.77;;;;;;;0.28;100.00;99148.72;5033827;28;20291;-80
2023/01/31 06:37:54;;;;;;;9.57;5.27;;;;;;;0.28;100.00;99154.81;5033421;28;20236;-81
2023/01/31 06:40:21;;;;;;;10.63;5.30;;;;;;;0.27;100.00;99155.69;5032517;28;20219;-81
2023/01/31 06:42:47;;;;;;;11.87;5.90;;;;;;;0.20;100.00;99167.00;5033940;28;20242;-80
2023/01/31 06:45:14;;;;;;;10.83;5.00;;;;;;;0.21;100.00;99163.56;5033675;28;20211;-80
2023/01/31 06:47:40;;;;;;;9.83;5.63;;;;;;;0.12;100.00;99167.97;5033703;28;20208;-81
2023/01/31 06:50:07;;;;;;;10.00;4.73;;;;;;;0.09;100.00;99174.09;5034755;28;20224;-81
2023/01/31 06:52:34;;;;;;;11.43;5.73;;;;;;;0.12;100.00;99167.97;5044575;28;20239;-80
2023/01/31 06:55:01;;;;;;;8.93;4.90;;;;;;;0.15;100.00;99168.84;5044567;28;20213;-82
2023/01/31 06:57:28;;;;;;;11.83;5.33;;;;;;;0.09;100.00;99168.91;5044739;28;20228;-81
2023/01/31 06:59:54;;;;;;;12.00;5.27;;;;;;;0.11;100.00;99161.94;5045823;28;20231;-81
2023/01/31 07:02:21;;;;;;;10.33;5.03;;;;;;;0.08;100.00;99155.91;5040218;28;20319;-80
2023/01/31 07:04:47;;;;;;;10.13;4.80;;;;;;;0.09;100.00;99155.91;5047719;28;20209;-81
2023/01/31 07:07:14;;;;;;;12.20;5.23;;;;;;;-0.02;100.00;99149.97;5047235;28;20671;-81
2023/01/31 07:09:40;;;;;;;9.97;4.83;;;;;;;-0.10;100.00;99151.78;5032479;28;20281;-80
2023/01/31 07:12:08;;;;;;;11.47;5.17;;;;;;;-0.22;100.00;99147.59;5032952;28;20228;-83
2023/01/31 07:14:35;;;;;;;12.30;5.27;;;;;;;-0.22;100.00;99154.50;5033017;28;20216;-80
2023/01/31 07:17:01;;;;;;;14.20;5.50;;;;;;;-0.22;100.00;99155.38;5032631;28;20227;-81
2023/01/31 07:19:28;;;;;;;12.27;6.30;;;;;;;-0.26;100.00;99154.56;5032245;28;20239;-80
2023/01/31 07:21:54;;;;;;;10.33;6.10;;;;;;;-0.26;100.00;99169.28;5032814;28;20236;-81
2023/01/31 07:24:21;;;;;;;11.63;6.03;;;;;;;-0.24;100.00;99162.34;5047041;28;20722;-78
2023/01/31 07:26:47;;;;;;;12.70;6.27;;;;;;;-0.17;100.00;99158.78;5051003;28;20226;-82
2023/01/31 07:29:15;;;;;;;8.87;5.50;;;;;;;-0.13;100.00;99162.22;5045382;28;20210;-83
2023/01/31 07:31:42;;;;;;;10.80;6.20;;;;;;;-0.07;100.00;99159.53;5047948;28;20205;-82
2023/01/31 07:34:08;;;;;;;13.93;6.37;;;;;;;0.03;100.00;99168.97;5049738;28;20215;-82
2023/01/31 07:36:35;;;;;;;11.43;5.63;;;;;;;0.12;100.00;99166.25;5048668;28;20211;-80
2023/01/31 07:39:01;;;;;;;12.80;6.00;;;;;;;0.22;100.00;99165.28;5046492;28;20233;-78
2023/01/31 07:41:28;;;;;;;10.33;5.83;;;;;;;0.33;100.00;99175.53;5048674;28;20204;-78
2023/01/31 07:43:54;;;;;;;11.90;6.00;;;;;;;0.43;100.00;99172.78;5042288;28;20667;-79
2023/01/31 07:46:22;;;;;;;13.83;6.33;;;;;;;0.50;100.00;99176.19;5033924;28;20577;-80
2023/01/31 07:48:48;;;;;;;10.83;6.20;;;;;;;0.61;100.00;99184.72;5033270;28;20216;-80
2023/01/31 07:51:15;;;;;;;16.87;6.23;;;;;;;0.69;100.00;99183.72;5032553;28;20296;-80
2023/01/31 07:53:42;;;;;;;10.33;5.50;;;;;;;0.76;100.00;99174.97;5033023;28;20418;-79
2023/01/31 07:56:11;;;;;;;10.20;5.80;;;;;;;0.84;100.00;99183.50;5033453;28;20210;-80
2023/01/31 07:58:40;;;;;;;11.93;5.80;;;;;;;0.86;100.00;99181.75;5032976;28;20225;-79
2023/01/31 08:03:53;;;;;;;9.50;4.63;;;;;;;0.78;100.00;99188.81;5033092;28;20766;-80
2023/01/31 08:06:19;;;;;;;10.77;5.20;;;;;;;0.75;100.00;99191.44;5033210;28;20236;-80
2023/01/31 08:08:46;;;;;;;12.13;5.17;;;;;;;0.80;100.00;99202.63;5033099;28;20205;-80
2023/01/31 08:11:13;;;;;;;8.83;5.20;;;;;;;0.85;100.00;99200.84;5032798;28;20589;-80
2023/01/31 08:13:39;;;;;;;10.57;5.70;;;;;;;1.02;100.00;99203.19;5032680;28;20236;-78
2023/01/31 08:16:08;;;;;;;11.43;5.90;;;;;;;1.34;100.00;99200.97;5032809;28;20432;-82
2023/01/31 08:18:35;;;;;;;17.40;6.00;;;;;;;1.50;100.00;99200.72;5032970;28;20230;-81
2023/01/31 08:21:03;;;;;;;13.50;5.70;;;;;;;1.65;100.00;99195.22;5032662;28;20208;-81
2023/01/31 08:23:30;;;;;;;11.80;5.80;;;;;;;1.77;100.00;99187.19;5032646;28;20232;-81
2023/01/31 08:26:01;;;;;;;9.50;5.47;;;;;;;1.81;100.00;99177.56;5032781;28;20244;-80
2023/01/31 08:28:27;;;;;;;8.50;4.23;;;;;;;1.90;100.00;99178.28;5036620;28;20211;-80
2023/01/31 08:30:54;;;;;;;8.90;4.70;;;;;;;2.07;100.00;99171.00;5046422;28;20212;-79
2023/01/31 08:33:20;;;;;;;10.93;4.90;;;;;;;2.26;100.00;99167.13;5044694;28;20232;-82
2023/01/31 08:35:47;;;;;;;10.20;4.67;;;;;;;2.41;100.00;99160.75;5033039;28;20675;-81
2023/01/31 08:38:14;;;;;;;12.87;4.97;;;;;;;2.57;100.00;99164.78;5032719;28;20229;-81
2023/01/31 08:40:41;;;;;;;7.90;4.77;;;;;;;2.70;100.00;99151.41;5031679;28;20213;-82
2023/01/31 08:43:08;;;;;;;8.00;4.40;;;;;;;2.79;100.00;99142.50;5031327;28;20235;-82
2023/01/31 08:45:36;;;;;;;7.73;4.43;;;;;;;2.85;100.00;99143.25;5031609;28;20324;-83
2023/01/31 08:48:03;;;;;;;7.90;3.90;;;;;;;2.88;100.00;99145.78;5032326;28;20208;-77
2023/01/31 08:50:32;;;;;;;9.35;4.32;;;;;;;2.98;100.00;99143.81;5031842;28;20430;-77
2023/01/31 08:53:00;;;;;;;8.97;3.87;;;;;;;2.94;99.83;99135.19;5029968;28;20239;-77
2023/01/31 08:55:29;;;;;;;9.70;3.90;;;;;;;2.97;99.52;99127.31;5031495;28;20213;-80
2023/01/31 08:57:56;;;;;;;8.70;4.37;;;;;;;2.97;98.10;99122.09;5029040;28;20589;-84
2023/01/31 09:00:23;;;;;;;7.83;3.97;;;;;;;3.02;97.74;99124.56;5030313;28;20658;-84
2023/01/31 09:02:51;;;;;;;10.50;3.80;;;;;;;3.02;97.88;99125.44;5035303;28;20234;-82
2023/01/31 09:05:18;;;;;;;10.32;4.65;;;;;;;3.16;97.98;99127.69;5032439;28;20437;-86
2023/01/31 09:07:44;;;;;;;8.00;4.03;;;;;;;3.19;96.35;99130.25;5035322;28;20212;-83
2023/01/31 09:10:11;;;;;;;8.67;3.77;;;;;;;3.23;95.52;99150.16;5035263;28;20675;-80
2023/01/31 09:12:39;;;;;;;8.63;3.80;;;;;;;3.25;95.54;99158.84;5034865;28;20235;-80
2023/01/31 09:15:07;;;;;;;10.93;4.10;;;;;;;3.34;94.57;99154.25;5034868;28;20208;-89
2023/01/31 09:17:33;;;;;;;8.37;3.70;;;;;;;3.45;94.01;99157.47;5035431;28;20224;-89
2023/01/31 09:20:05;;;;;;;12.10;4.13;;;;;;;3.62;93.36;99150.03;5034789;28;20226;-89
2023/01/31 09:22:32;;;;;;;6.67;3.70;;;;;;;3.75;91.51;99148.84;5034992;28;20266;-89
2023/01/31 09:24:58;;;;;;;8.03;3.57;;;;;;;3.85;89.60;99142.47;5035123;28;20215;-90
2023/01/31 09:27:25;;;;;;;6.67;3.43;;;;;;;4.00;90.11;99139.47;5035250;28;20232;-87
2023/01/31 09:29:53;;;;;;;8.70;3.57;;;;;;;4.12;89.97;99131.28;5034501;28;20583;-77
2023/01/31 09:32:20;;;;;;;13.13;3.50;;;;;;;4.13;88.95;99126.88;5034632;28;20231;-87
2023/01/31 09:34:47;;;;;;;10.23;3.50;;;;;;;4.19;88.62;99122.34;5035039;28;20236;-88
2023/01/31 09:37:14;;;;;;;6.67;3.50;;;;;;;4.36;88.36;99114.88;5034471;28;20253;-89
2023/01/31 09:39:40;;;;;;;10.20;4.00;;;;;;;4.40;87.15;99116.47;5034478;28;20231;-89
2023/01/31 09:42:19;;;;;;;9.27;3.60;;;;;;;4.52;86.09;99121.34;5034801;28;20237;-89
2023/01/31 09:44:56;;;;;;;7.77;3.63;;;;;;;4.56;84.86;99120.38;5034593;28;20219;-88
2023/01/31 09:47:27;;;;;;;6.70;3.23;;;;;;;4.57;84.87;99118.59;5034700;28;20206;-88
2023/01/31 09:49:58;;;;;;;10.57;3.60;;;;;;;4.55;84.49;99118.66;5034563;28;20301;-87
2023/01/31 09:52:26;;;;;;;8.10;3.20;;;;;;;4.59;84.45;99112.41;5034367;28;20234;-87
2023/01/31 09:54:53;;;;;;;6.83;3.30;;;;;;;4.62;83.80;99112.34;5034462;28;20211;-82
2023/01/31 09:57:31;;;;;;;10.63;3.87;;;;;;;4.72;82.53;99107.69;5034553;28;20228;-86
2023/01/31 10:00:08;;;;;;;9.17;3.70;;;;;;;4.65;81.29;99109.63;5033645;28;20257;-82
2023/01/31 10:03:17;;;;;;;5.20;2.63;;;;;;;4.69;80.74;99113.00;5034389;28;20781;-83
2023/01/31 10:05:48;;;;;;;4.70;3.13;;;;;;;4.71;80.02;99117.28;5005303;28;20221;-82
2023/01/31 10:08:23;;;;;;;10.83;3.03;;;;;;;4.68;79.59;99117.38;5034929;28;20230;-81
2023/01/31 10:10:52;;;;;;;5.40;2.63;;;;;;;4.74;79.62;99121.56;5034247;28;20303;-83
2023/01/31 10:13:24;;;;;;;5.67;2.80;;;;;;;4.73;78.94;99119.88;5033813;28;20233;-83
2023/01/31 10:15:55;;;;;;;8.47;3.13;;;;;;;4.75;78.75;99113.69;5034747;28;20311;-83
2023/01/31 10:18:28;;;;;;;6.40;2.53;;;;;;;4.84;79.09;99123.84;5034723;28;20218;-83
2023/01/31 10:20:57;;;;;;;7.17;3.17;;;;;;;4.86;78.94;99111.59;5033996;28;20235;-82
2023/01/31 10:23:29;;;;;;;6.87;2.70;;;;;;;4.91;79.11;99108.81;5034202;28;20233;-83
2023/01/31 10:26:00;;;;;;;8.17;3.13;;;;;;;4.83;79.03;99110.84;5034352;28;20219;-83
2023/01/31 10:28:34;;;;;;;5.77;2.80;;;;;;;4.72;80.15;99108.56;5034585;28;20560;-83
2023/01/31 10:31:06;;;;;;;5.73;2.87;;;;;;;4.75;80.10;99111.06;5033945;28;20252;-84
2023/01/31 10:33:43;;;;;;;7.40;3.53;;;;;;;4.81;80.46;99113.50;5034053;28;20246;-83
2023/01/31 10:36:14;;;;;;;9.40;3.07;;;;;;;4.81;79.89;99100.41;5034150;28;20221;-83
2023/01/31 10:38:51;;;;;;;9.23;2.80;;;;;;;4.93;80.20;99102.63;5034388;28;20263;-85
2023/01/31 10:41:24;;;;;;;5.20;2.73;;;;;;;5.09;80.09;99109.13;5034387;28;20195;-83
2023/01/31 10:43:57;;;;;;;8.60;3.20;;;;;;;5.19;79.97;99104.44;5033790;28;20336;-84
2023/01/31 10:46:24;;;;;;;6.90;3.27;;;;;;;5.16;79.08;99100.16;5034187;28;20215;-84
2023/01/31 10:48:52;;;;;;;8.73;3.00;;;;;;;5.11;78.86;99107.28;5033819;28;20498;-83
2023/01/31 10:51:31;;;;;;;8.23;2.93;;;;;;;5.05;78.30;99106.63;5033934;28;20675;-80
2023/01/31 10:54:12;;;;;;;8.13;2.87;;;;;;;5.01;78.44;99105.84;5045335;23;20243;-78
2023/01/31 10:56:43;;;;;;;8.53;3.07;;;;;;;5.00;80.04;99119.03;5033097;28;20209;-78
2023/01/31 10:59:18;;;;;;;7.03;3.40;;;;;;;5.10;80.05;99113.44;5032606;28;20234;-79
2023/01/31 11:01:45;;;;;;;8.60;3.30;;;;;;;5.21;79.39;99116.59;5032911;28;20496;-81
2023/01/31 11:04:25;;;;;;;8.40;3.53;;;;;;;5.28;79.56;99105.00;5051572;28;20239;-77
2023/01/31 11:06:52;;;;;;;7.97;3.03;;;;;;;5.24;78.75;99098.13;5053672;28;20217;-80
2023/01/31 11:09:22;;;;;;;8.40;3.60;;;;;;;5.28;78.88;99094.50;5054463;28;20213;-80
2023/01/31 11:11:55;;;;;;;6.03;3.73;;;;;;;5.45;78.68;99091.31;5059670;28;20211;-79
2023/01/31 11:14:21;;;;;;;5.83;3.70;;;;;;;5.41;78.56;99074.84;5060203;28;20319;-81
2023/01/31 11:16:49;;;;;;;6.80;3.33;;;;;;;5.34;78.80;99067.22;5056284;28;20216;-80
2023/01/31 11:19:24;;;;;;;8.77;3.17;;;;;;;5.38;77.43;99059.19;5051854;28;20231;-82
2023/01/31 11:21:52;;;;;;;7.30;3.13;;;;;;;5.29;78.92;99070.00;5052582;28;20208;-80
2023/01/31 11:24:22;;;;;;;7.43;3.10;;;;;;;5.37;78.99;99078.47;5052422;28;20244;-81
2023/01/31 11:26:53;;;;;;;6.93;3.37;;;;;;;5.53;78.72;99074.41;5052611;28;20211;-81
2023/01/31 11:29:24;;;;;;;11.30;3.57;;;;;;;5.66;78.35;99067.84;5052344;28;20490;-83
2023/01/31 11:31:52;;;;;;;6.47;2.80;;;;;;;5.69;77.60;99054.59;5053314;28;20688;-82
2023/01/31 11:34:22;;;;;;;7.37;3.20;;;;;;;5.71;78.73;99030.94;5052552;28;20560;-83
2023/01/31 11:36:49;;;;;;;5.60;2.73;;;;;;;5.84;78.21;99030.50;5052614;28;20217;-82
2023/01/31 11:39:36;;;;;;;7.17;2.70;;;;;;;5.97;77.89;99029.13;5051822;28;20211;-81
2023/01/31 11:42:08;;;;;;;7.77;3.20;;;;;;;5.91;77.40;99018.88;5052001;28;20332;-82
2023/01/31 11:44:34;;;;;;;7.53;3.27;;;;;;;5.91;76.62;99016.25;5053815;28;20600;-84
2023/01/31 11:47:04;;;;;;;6.27;2.97;;;;;;;5.94;76.20;99017.91;5053111;28;20210;-82